Time;durP1;ratioP1;P1;durP2;ratioP2;P2;SDS_P1;SDS_P2;PMS_P1;PMS_P2;Temp;Humidity;BMP_temperature;BMP_pressure;BME280_temperature;BME280_humidity;BME280_pressure;Samples;Min_cycle;Max_cycle;Signal;HPM_P1;HPM_P2
2023/03/25 00:02:12;;;;;;;49.03;7.17;;;17.80;59.60;;;;;;5076010;28;20658;-91
2023/03/25 00:04:40;;;;;;;29.83;6.43;;;17.80;59.50;;;;;;5052439;28;20198;-90
2023/03/25 00:07:08;;;;;;;28.30;5.80;;;17.80;59.50;;;;;;5076219;28;20543;-91
2023/03/25 00:09:35;;;;;;;22.80;5.23;;;17.80;59.50;;;;;;5075735;28;20227;-90
2023/03/25 00:12:02;;;;;;;27.47;5.47;;;17.80;60.10;;;;;;5069966;28;20194;-90
2023/03/25 00:14:31;;;;;;;35.67;6.07;;;17.80;59.50;;;;;;5078138;28;20214;-90
2023/03/25 00:17:00;;;;;;;29.30;5.93;;;17.80;59.60;;;;;;5065316;28;20250;-90
2023/03/25 00:19:27;;;;;;;30.53;6.10;;;17.80;59.60;;;;;;5060134;28;20196;-91
2023/03/25 00:21:54;;;;;;;42.50;7.07;;;17.70;59.50;;;;;;5059801;28;20205;-91
2023/03/25 00:24:23;;;;;;;36.03;6.43;;;17.80;59.60;;;;;;5068694;28;20605;-91
2023/03/25 00:26:50;;;;;;;30.63;5.60;;;17.80;59.50;;;;;;5062956;28;20228;-90
2023/03/25 00:29:17;;;;;;;41.50;6.50;;;17.70;59.50;;;;;;5065353;28;20203;-91
2023/03/25 00:31:44;;;;;;;30.07;5.53;;;17.80;59.60;;;;;;5076427;28;20212;-90
2023/03/25 00:34:13;;;;;;;28.57;6.07;;;17.70;59.50;;;;;;5078940;28;20209;-90
2023/03/25 00:36:42;;;;;;;31.20;5.57;;;17.70;59.50;;;;;;5069459;28;20851;-91
2023/03/25 00:39:10;;;;;;;27.07;5.30;;;17.70;59.50;;;;;;5067640;28;20205;-91
2023/03/25 00:41:40;;;;;;;30.13;5.67;;;17.70;59.50;;;;;;5074025;28;20207;-90
2023/03/25 00:44:11;;;;;;;55.17;7.20;;;17.60;59.40;;;;;;5067806;28;20263;-94
2023/03/25 00:46:40;;;;;;;32.47;5.80;;;17.70;59.50;;;;;;5070924;28;20191;-92
2023/03/25 00:49:07;;;;;;;28.17;5.97;;;17.70;59.50;;;;;;5071258;28;20285;-95
2023/03/25 00:51:34;;;;;;;33.33;5.77;;;17.70;59.50;;;;;;5082886;28;20266;-94
2023/03/25 00:54:04;;;;;;;34.77;6.23;;;17.70;59.50;;;;;;5079495;28;20624;-95
2023/03/25 00:56:31;;;;;;;31.70;6.23;;;17.70;59.40;;;;;;5089636;28;21086;-92
2023/03/25 00:59:02;;;;;;;28.30;5.70;;;17.70;60.10;;;;;;5087204;28;20201;-94
2023/03/25 01:01:32;;;;;;;38.73;6.50;;;17.70;59.40;;;;;;5073988;28;20210;-93
2023/03/25 01:04:00;;;;;;;32.90;7.10;;;17.60;59.40;;;;;;5080025;28;20207;-91
2023/03/25 01:06:31;;;;;;;60.27;8.77;;;17.70;59.40;;;;;;5084663;28;20259;-92
2023/03/25 01:09:00;;;;;;;34.83;5.87;;;17.70;59.50;;;;;;5053288;28;20256;-91
2023/03/25 01:11:33;;;;;;;36.40;6.30;;;17.70;59.40;;;;;;5072786;28;20229;-91
2023/03/25 01:14:02;;;;;;;31.77;6.37;;;17.60;59.40;;;;;;5067153;28;20254;-93
2023/03/25 01:16:31;;;;;;;47.73;7.00;;;17.60;59.40;;;;;;5068181;28;20218;-92
2023/03/25 01:18:58;;;;;;;30.17;7.23;;;17.60;59.40;;;;;;5070822;28;20251;-93
2023/03/25 01:21:26;;;;;;;25.23;5.80;;;17.60;59.40;;;;;;5073182;28;20231;-94
2023/03/25 01:23:53;;;;;;;28.30;5.83;;;17.70;59.40;;;;;;5068142;28;20290;-94
2023/03/25 01:26:20;;;;;;;41.53;6.97;;;17.60;59.40;;;;;;5073740;28;20206;-93
2023/03/25 01:28:46;;;;;;;34.47;6.03;;;17.60;59.40;;;;;;5081443;28;20239;-93
2023/03/25 01:31:15;;;;;;;32.30;6.33;;;17.60;59.40;;;;;;5076710;28;20226;-93
2023/03/25 01:33:42;;;;;;;36.60;6.40;;;17.60;60.00;;;;;;5068953;28;20210;-92
2023/03/25 01:36:11;;;;;;;30.37;6.27;;;17.60;59.40;;;;;;5071195;28;20207;-95
2023/03/25 01:38:38;;;;;;;49.07;7.67;;;17.60;59.40;;;;;;5071797;28;20218;-94
2023/03/25 01:41:06;;;;;;;58.67;8.57;;;17.50;59.40;;;;;;5072699;28;20202;-93
2023/03/25 01:43:33;;;;;;;39.90;7.07;;;17.50;59.40;;;;;;5074114;28;20214;-94
2023/03/25 01:46:04;;;;;;;30.93;6.67;;;17.50;59.40;;;;;;5074397;28;20293;-92
2023/03/25 01:48:36;;;;;;;40.80;7.33;;;17.50;59.40;;;;;;5080422;28;20205;-93
2023/03/25 01:51:08;;;;;;;28.60;6.57;;;17.50;59.40;;;;;;5073334;28;20230;-91
2023/03/25 01:53:35;;;;;;;40.40;7.53;;;17.50;59.40;;;;;;5069120;28;20641;-94
2023/03/25 01:56:05;;;;;;;52.60;7.50;;;17.50;59.40;;;;;;5060605;28;20231;-93
2023/03/25 01:58:35;;;;;;;30.13;5.70;;;17.50;59.40;;;;;;5070140;28;20216;-90
2023/03/25 02:01:02;;;;;;;30.47;6.23;;;17.40;59.30;;;;;;5054777;28;20211;-92
2023/03/25 02:03:35;;;;;;;36.10;6.77;;;17.50;59.40;;;;;;5078827;28;20228;-92
2023/03/25 02:06:07;;;;;;;30.00;5.93;;;17.50;59.40;;;;;;5055764;28;20207;-92
2023/03/25 02:08:38;;;;;;;32.33;6.00;;;17.40;59.40;;;;;;5065148;28;20199;-93
2023/03/25 02:11:06;;;;;;;31.43;6.00;;;17.50;59.40;;;;;;5071063;28;20263;-92
2023/03/25 02:13:36;;;;;;;31.67;6.50;;;17.40;59.40;;;;;;5075973;28;20214;-90
2023/03/25 02:16:15;;;;;;;50.63;7.77;;;17.40;59.40;;;;;;5066952;28;20249;-91
2023/03/25 02:18:55;;;;;;;36.97;6.63;;;17.40;59.40;;;;;;5063993;28;20199;-92
2023/03/25 02:21:49;;;;;;;31.20;6.43;;;17.40;59.30;;;;;;5059544;28;20238;-92
2023/03/25 02:24:44;;;;;;;47.63;7.43;;;17.40;59.30;;;;;;5077941;28;20205;-92
2023/03/25 02:27:40;;;;;;;38.20;6.63;;;17.40;59.30;;;;;;5058771;28;20198;-91
2023/03/25 02:30:41;;;;;;;37.27;6.60;;;17.40;59.30;;;;;;5073790;28;20206;-92
2023/03/25 02:33:53;;;;;;;37.57;6.87;;;17.40;59.30;;;;;;5065942;28;20210;-92
2023/03/25 02:37:00;;;;;;;34.13;6.63;;;17.40;59.30;;;;;;5066881;28;20215;-92
2023/03/25 02:39:34;;;;;;;42.90;7.03;;;17.40;59.30;;;;;;5074707;28;20196;-92
2023/03/25 02:42:08;;;;;;;31.47;6.10;;;17.30;59.30;;;;;;5069971;28;20208;-94
2023/03/25 02:44:40;;;;;;;30.20;5.87;;;17.30;59.30;;;;;;5077111;28;20200;-93
2023/03/25 02:47:13;;;;;;;25.67;5.77;;;17.30;59.30;;;;;;5077692;28;20645;-92
2023/03/25 02:49:44;;;;;;;37.50;6.83;;;17.30;59.30;;;;;;5063611;28;20633;-92
2023/03/25 02:52:16;;;;;;;34.03;6.30;;;17.30;59.30;;;;;;5070019;28;20255;-93
2023/03/25 02:54:47;;;;;;;24.63;5.73;;;17.30;59.90;;;;;;5060047;28;20763;-94
2023/03/25 02:57:20;;;;;;;30.63;5.97;;;17.30;59.30;;;;;;5050829;28;20292;-92
2023/03/25 02:59:48;;;;;;;30.57;6.23;;;17.30;59.30;;;;;;5049835;28;20206;-94
2023/03/25 03:02:18;;;;;;;27.83;5.80;;;17.40;59.40;;;;;;5050091;28;20297;-93
2023/03/25 03:04:47;;;;;;;36.93;6.83;;;17.30;59.30;;;;;;5071565;28;20602;-93
2023/03/25 03:07:21;;;;;;;24.77;5.40;;;17.30;59.30;;;;;;5090712;28;20209;-94
2023/03/25 03:09:57;;;;;;;28.13;6.10;;;17.20;59.20;;;;;;5081476;28;20206;-93
2023/03/25 03:12:48;;;;;;;25.60;5.47;;;17.20;59.20;;;;;;5063385;28;20273;-92
2023/03/25 03:15:27;;;;;;;25.83;5.97;;;17.30;59.30;;;;;;5062398;28;20234;-96
2023/03/25 03:18:06;;;;;;;31.43;6.23;;;17.30;59.30;;;;;;5064578;28;20562;-94
2023/03/25 03:20:40;;;;;;;27.50;5.70;;;17.30;59.30;;;;;;5074760;28;20724;-94
2023/03/25 03:23:13;;;;;;;58.00;8.00;;;17.30;59.30;;;;;;5065083;28;20203;-91
2023/03/25 03:25:49;;;;;;;33.27;6.03;;;17.20;59.20;;;;;;5080732;28;20224;-93
2023/03/25 03:28:23;;;;;;;51.20;7.70;;;17.20;59.20;;;;;;5065582;28;20198;-93
2023/03/25 03:30:57;;;;;;;34.87;6.43;;;17.20;59.20;;;;;;5072715;28;20231;-94
2023/03/25 03:33:30;;;;;;;53.20;8.20;;;17.20;59.20;;;;;;5071229;28;20244;-91
2023/03/25 03:36:01;;;;;;;30.20;6.03;;;17.20;59.20;;;;;;5069013;28;20245;-94
2023/03/25 03:38:34;;;;;;;32.63;5.97;;;17.20;59.30;;;;;;5069077;28;20204;-92
2023/03/25 03:41:07;;;;;;;29.37;5.83;;;17.20;59.20;;;;;;5068614;28;20210;-93
2023/03/25 03:43:40;;;;;;;55.20;7.97;;;17.20;59.20;;;;;;5065023;28;20200;-95
2023/03/25 03:46:10;;;;;;;54.83;8.10;;;17.10;59.20;;;;;;5065416;28;20236;-93
2023/03/25 03:48:41;;;;;;;48.60;7.13;;;17.20;59.30;;;;;;5067904;28;20647;-92
2023/03/25 03:51:13;;;;;;;29.13;5.80;;;17.10;59.20;;;;;;5067415;28;20237;-93
2023/03/25 03:53:42;;;;;;;34.23;6.10;;;17.20;59.30;;;;;;5068113;28;20223;-92
2023/03/25 03:56:15;;;;;;;48.30;7.33;;;17.10;59.20;;;;;;5067996;28;20212;-92
2023/03/25 03:58:43;;;;;;;29.43;5.80;;;17.10;59.20;;;;;;5070635;28;20212;-93
2023/03/25 04:01:14;;;;;;;33.13;5.97;;;17.10;59.20;;;;;;5079085;28;20207;-92
2023/03/25 04:03:47;;;;;;;46.10;7.47;;;17.10;59.20;;;;;;5051440;28;20214;-92
2023/03/25 04:06:20;;;;;;;28.63;5.70;;;17.00;59.10;;;;;;5049389;28;20196;-93
2023/03/25 04:08:57;;;;;;;33.40;6.00;;;17.10;59.10;;;;;;5055027;28;20203;-94
2023/03/25 04:11:31;;;;;;;26.47;5.97;;;17.10;59.10;;;;;;5076769;28;20229;-93
2023/03/25 04:14:00;;;;;;;40.83;6.13;;;17.10;59.20;;;;;;5082475;28;20200;-93
2023/03/25 04:16:28;;;;;;;27.27;5.87;;;17.00;59.10;;;;;;5049339;28;20737;-94
2023/03/25 04:18:57;;;;;;;31.63;5.60;;;17.10;59.20;;;;;;5052659;28;20201;-93
2023/03/25 04:21:24;;;;;;;22.20;5.00;;;17.10;59.20;;;;;;5068516;28;20741;-94
2023/03/25 04:23:51;;;;;;;26.40;5.33;;;17.10;59.20;;;;;;5064994;28;20224;-94
2023/03/25 04:26:18;;;;;;;36.27;6.43;;;17.20;59.20;;;;;;5080218;28;20204;-93
2023/03/25 04:28:47;;;;;;;28.00;5.37;;;17.00;59.00;;;;;;5069780;28;20203;-94
2023/03/25 04:31:15;;;;;;;28.30;5.30;;;17.00;59.00;;;;;;5082901;28;20226;-92
2023/03/25 04:33:47;;;;;;;38.10;6.80;;;17.00;59.10;;;;;;5066099;28;20665;-92
2023/03/25 04:36:14;;;;;;;31.33;6.17;;;17.00;59.10;;;;;;5063661;28;20306;-93
2023/03/25 04:38:44;;;;;;;49.17;7.13;;;17.10;59.10;;;;;;5068116;28;20216;-94
2023/03/25 04:41:12;;;;;;;32.47;5.80;;;17.00;59.10;;;;;;5079361;28;20688;-94
2023/03/25 04:43:39;;;;;;;24.80;5.73;;;17.00;59.10;;;;;;5069280;28;20203;-93
2023/03/25 04:46:12;;;;;;;25.73;5.47;;;17.00;59.10;;;;;;5068801;28;20191;-92
2023/03/25 04:48:40;;;;;;;25.93;5.83;;;17.00;59.00;;;;;;5085032;28;20958;-92
2023/03/25 04:51:09;;;;;;;30.87;6.33;;;17.00;59.10;;;;;;5084601;28;20672;-91
2023/03/25 04:53:37;;;;;;;19.93;5.47;;;17.10;59.10;;;;;;5073402;28;20203;-91
2023/03/25 04:56:05;;;;;;;30.37;5.50;;;16.90;59.00;;;;;;5077236;28;20203;-92
2023/03/25 04:58:35;;;;;;;33.87;6.63;;;16.90;59.00;;;;;;5090471;28;20203;-92
2023/03/25 05:01:04;;;;;;;36.90;6.87;;;16.90;59.00;;;;;;5089716;28;20208;-93
2023/03/25 05:03:34;;;;;;;30.93;5.73;;;17.00;59.00;;;;;;5092893;28;20212;-92
2023/03/25 05:06:00;;;;;;;35.23;6.90;;;16.90;59.00;;;;;;5085099;28;20220;-92
2023/03/25 05:08:28;;;;;;;28.50;5.83;;;16.90;59.00;;;;;;5083124;28;20205;-92
2023/03/25 05:10:55;;;;;;;27.57;5.63;;;16.90;59.00;;;;;;5052110;28;20211;-93
2023/03/25 05:13:22;;;;;;;20.80;4.70;;;16.90;59.00;;;;;;5052438;28;20211;-92
2023/03/25 05:15:49;;;;;;;30.13;6.40;;;16.90;59.00;;;;;;5068542;28;20720;-92
2023/03/25 05:18:17;;;;;;;49.33;7.83;;;16.80;58.90;;;;;;5080765;28;20208;-92
2023/03/25 05:20:49;;;;;;;34.00;6.43;;;16.90;59.00;;;;;;5069877;28;20202;-92
2023/03/25 05:23:17;;;;;;;30.37;6.90;;;16.90;59.00;;;;;;5071256;28;20234;-92
2023/03/25 05:25:46;;;;;;;31.87;6.13;;;16.90;59.00;;;;;;5070640;28;20199;-91
2023/03/25 05:28:14;;;;;;;32.80;7.10;;;16.90;59.00;;;;;;5070884;28;20298;-92
2023/03/25 05:30:42;;;;;;;26.60;5.80;;;16.90;59.00;;;;;;5077898;28;20218;-92
2023/03/25 05:33:10;;;;;;;32.70;6.27;;;16.90;59.00;;;;;;5070248;28;20227;-92
2023/03/25 05:35:38;;;;;;;30.63;6.57;;;16.80;58.90;;;;;;5069099;28;20202;-91
2023/03/25 05:38:07;;;;;;;34.73;6.27;;;16.80;58.90;;;;;;5080426;28;20242;-91
2023/03/25 05:40:34;;;;;;;20.03;4.70;;;16.80;59.00;;;;;;5074749;28;20197;-91
2023/03/25 05:43:02;;;;;;;44.80;7.63;;;16.80;58.90;;;;;;5074198;28;20298;-95
2023/03/25 05:45:29;;;;;;;28.00;5.73;;;16.80;59.00;;;;;;5079570;28;20202;-93
2023/03/25 05:47:58;;;;;;;32.13;6.83;;;16.80;59.00;;;;;;5093372;28;20285;-94
2023/03/25 05:50:26;;;;;;;29.60;6.10;;;16.80;59.00;;;;;;5077381;28;20294;-95
2023/03/25 05:52:56;;;;;;;24.37;5.53;;;16.80;59.00;;;;;;5074846;28;20233;-94
2023/03/25 05:55:24;;;;;;;27.10;5.37;;;16.80;59.00;;;;;;5075816;28;20199;-93
2023/03/25 05:57:52;;;;;;;39.80;6.93;;;16.80;59.00;;;;;;5079044;28;20701;-93
2023/03/25 06:00:21;;;;;;;36.27;5.87;;;16.70;58.90;;;;;;5074644;28;20668;-93
2023/03/25 06:02:49;;;;;;;42.23;6.93;;;16.80;59.00;;;;;;5068871;28;20742;-93
2023/03/25 06:05:16;;;;;;;73.33;9.53;;;16.80;59.00;;;;;;5085441;28;20638;-93
2023/03/25 06:07:46;;;;;;;27.00;5.57;;;16.80;59.00;;;;;;5071392;28;20238;-94
2023/03/25 06:10:15;;;;;;;30.30;5.67;;;16.80;59.00;;;;;;5071090;28;20219;-94
2023/03/25 06:12:45;;;;;;;29.93;6.43;;;16.70;58.90;;;;;;5067590;28;20230;-94
2023/03/25 06:15:14;;;;;;;29.07;6.20;;;16.70;58.90;;;;;;5071218;28;20289;-93
2023/03/25 06:17:41;;;;;;;39.03;6.93;;;16.70;58.90;;;;;;5057250;28;20534;-94
2023/03/25 06:20:11;;;;;;;41.53;6.60;;;16.70;58.90;;;;;;5065719;28;20225;-93
2023/03/25 06:22:41;;;;;;;27.57;6.17;;;16.80;59.00;;;;;;5066607;28;21012;-96
2023/03/25 06:25:10;;;;;;;30.60;6.00;;;16.80;59.00;;;;;;5071756;28;20214;-92
2023/03/25 06:27:39;;;;;;;27.87;5.63;;;16.80;59.00;;;;;;5071150;28;20214;-93
2023/03/25 06:30:10;;;;;;;31.43;6.53;;;16.70;58.90;;;;;;5071066;28;20213;-92
2023/03/25 06:32:37;;;;;;;26.73;6.17;;;16.70;58.90;;;;;;5068403;28;20670;-93
2023/03/25 06:35:06;;;;;;;62.13;8.87;;;16.70;58.90;;;;;;5072650;28;20229;-93
2023/03/25 06:37:35;;;;;;;33.53;7.43;;;16.70;58.90;;;;;;5068506;28;20240;-95
2023/03/25 06:40:04;;;;;;;40.90;7.13;;;16.70;58.90;;;;;;5070016;28;20293;-94
2023/03/25 06:42:31;;;;;;;36.40;6.53;;;16.70;58.90;;;;;;5074206;28;20220;-94
2023/03/25 06:44:58;;;;;;;29.27;6.53;;;16.70;58.90;;;;;;5071803;28;20249;-94
2023/03/25 06:47:26;;;;;;;47.30;7.63;;;16.70;58.90;;;;;;5074912;28;20644;-94
2023/03/25 06:50:01;;;;;;;32.53;6.67;;;16.70;58.90;;;;;;5091500;28;20235;-94
2023/03/25 06:52:28;;;;;;;32.90;6.83;;;16.70;58.90;;;;;;5051335;28;20230;-93
2023/03/25 06:54:56;;;;;;;28.00;6.30;;;16.70;59.50;;;;;;5068900;28;20195;-93
2023/03/25 06:57:23;;;;;;;36.43;6.53;;;16.70;58.90;;;;;;5089858;28;20237;-95
2023/03/25 06:59:50;;;;;;;30.77;6.10;;;16.70;58.90;;;;;;5091766;28;20674;-94
2023/03/25 07:02:17;;;;;;;28.50;6.13;;;16.70;58.90;;;;;;5089045;28;20664;-94
2023/03/25 07:04:45;;;;;;;51.10;7.67;;;16.70;58.90;;;;;;5087348;28;20213;-95
2023/03/25 07:07:15;;;;;;;33.13;6.37;;;16.70;58.90;;;;;;5086428;28;20292;-93
2023/03/25 07:09:42;;;;;;;39.33;7.57;;;16.70;58.90;;;;;;5051799;28;20204;-93
2023/03/25 07:12:09;;;;;;;30.27;6.47;;;16.70;58.90;;;;;;5081333;28;20234;-96
2023/03/25 07:14:36;;;;;;;45.23;7.80;;;16.70;58.90;;;;;;5090991;28;20200;-94
2023/03/25 07:17:11;;;;;;;27.13;6.33;;;16.70;58.90;;;;;;5073192;28;20618;-93
2023/03/25 07:19:38;;;;;;;57.60;8.70;;;16.70;58.90;;;;;;5076832;28;20207;-93
2023/03/25 07:22:07;;;;;;;46.00;7.33;;;16.70;58.90;;;;;;5072327;28;20296;-93
2023/03/25 07:24:34;;;;;;;37.97;6.73;;;16.70;58.90;;;;;;5070902;28;20211;-94
2023/03/25 07:27:01;;;;;;;28.13;5.80;;;16.70;58.90;;;;;;5071198;28;20303;-96
2023/03/25 07:29:32;;;;;;;31.73;6.70;;;16.70;58.90;;;;;;5083818;28;20242;-94
2023/03/25 07:32:01;;;;;;;32.17;6.53;;;16.70;58.90;;;;;;5075631;28;20221;-94
2023/03/25 07:34:29;;;;;;;32.17;7.10;;;16.60;58.80;;;;;;5089633;28;20206;-95
2023/03/25 07:36:56;;;;;;;26.90;5.83;;;16.60;58.90;;;;;;5068146;28;20193;-94
2023/03/25 07:39:25;;;;;;;39.53;7.80;;;16.70;59.00;;;;;;5068429;28;20309;-93
2023/03/25 07:41:52;;;;;;;50.90;7.67;;;16.70;58.90;;;;;;5065384;28;20205;-93
2023/03/25 07:44:20;;;;;;;30.47;6.67;;;16.70;59.00;;;;;;5048864;28;20626;-96
2023/03/25 07:46:48;;;;;;;31.43;6.80;;;16.70;59.00;;;;;;5068664;28;20211;-95
2023/03/25 07:49:15;;;;;;;36.97;7.27;;;16.70;59.00;;;;;;5069470;28;20213;-94
2023/03/25 07:51:43;;;;;;;37.00;6.90;;;16.60;58.90;;;;;;5067872;28;20200;-96
2023/03/25 07:54:10;;;;;;;39.40;7.10;;;16.70;59.00;;;;;;5076729;28;20294;-94
2023/03/25 07:57:30;;;;;;;36.93;7.20;;;16.70;59.00;;;;;;5085331;28;20227;-93
2023/03/25 07:59:59;;;;;;;45.33;7.03;;;16.60;58.90;;;;;;5069074;28;20203;-95
2023/03/25 08:02:25;;;;;;;44.03;7.70;;;16.70;58.90;;;;;;5065653;28;20232;-93
2023/03/25 08:04:54;;;;;;;36.57;7.20;;;16.70;58.90;;;;;;5067739;28;20203;-94
2023/03/25 08:07:21;;;;;;;32.67;6.13;;;16.70;59.00;;;;;;5068423;28;20210;-96
2023/03/25 08:09:48;;;;;;;50.57;8.10;;;16.70;59.00;;;;;;5067428;28;20235;-94
2023/03/25 08:12:15;;;;;;;32.63;6.53;;;16.70;58.90;;;;;;5066719;28;20323;-94
2023/03/25 08:14:42;;;;;;;34.07;6.60;;;16.70;59.00;;;;;;5068504;28;20233;-93
2023/03/25 08:17:13;;;;;;;24.60;6.40;;;16.70;58.90;;;;;;5068032;28;20574;-94
2023/03/25 08:19:40;;;;;;;32.30;6.87;;;16.70;59.00;;;;;;5068521;28;20620;-95
2023/03/25 08:22:07;;;;;;;36.67;6.70;;;16.70;58.90;;;;;;5064027;28;20314;-96
2023/03/25 08:24:34;;;;;;;36.70;6.63;;;16.70;59.00;;;;;;5068670;28;20207;-96
2023/03/25 08:27:01;;;;;;;40.00;6.60;;;16.70;59.60;;;;;;5067869;28;20204;-93
2023/03/25 08:29:33;;;;;;;35.17;7.13;;;16.70;59.00;;;;;;5069256;28;20211;-95
2023/03/25 08:32:00;;;;;;;30.67;6.77;;;16.70;59.00;;;;;;5067067;28;20203;-95
2023/03/25 08:34:33;;;;;;;40.20;6.83;;;16.70;59.00;;;;;;5065154;28;20282;-94
2023/03/25 08:37:02;;;;;;;33.77;6.77;;;16.70;59.00;;;;;;5064230;28;20208;-95
2023/03/25 08:39:35;;;;;;;48.13;8.10;;;16.70;59.00;;;;;;5067683;28;20209;-93
2023/03/25 08:42:03;;;;;;;33.93;6.40;;;16.70;59.00;;;;;;5069007;28;20199;-94
2023/03/25 08:44:30;;;;;;;27.10;6.30;;;16.70;59.00;;;;;;5068778;28;20222;-95
2023/03/25 08:46:57;;;;;;;34.77;6.60;;;16.80;59.10;;;;;;5049305;28;20230;-95
2023/03/25 08:49:24;;;;;;;25.30;6.20;;;16.70;59.00;;;;;;5050048;28;20212;-95
2023/03/25 08:51:53;;;;;;;38.23;6.83;;;16.70;59.10;;;;;;5057221;28;20237;-94
2023/03/25 08:54:22;;;;;;;24.50;5.90;;;16.70;59.10;;;;;;5069040;28;20243;-95
2023/03/25 08:57:37;;;;;;;43.77;6.83;;;16.70;59.10;;;;;;5068723;28;20205;-94
2023/03/25 09:00:07;;;;;;;38.50;6.83;;;16.70;59.10;;;;;;5049002;28;20223;-95
2023/03/25 09:02:34;;;;;;;28.03;6.73;;;16.70;59.10;;;;;;5056870;28;20205;-96
2023/03/25 09:05:05;;;;;;;43.37;7.13;;;16.70;59.10;;;;;;5069039;28;20208;-94
2023/03/25 09:07:48;;;;;;;45.03;7.40;;;16.70;59.10;;;;;;5067859;28;20208;-93
2023/03/25 09:10:15;;;;;;;43.63;7.20;;;16.70;59.10;;;;;;5068939;28;20711;-94
2023/03/25 09:12:42;;;;;;;37.17;7.07;;;16.70;59.10;;;;;;5070983;28;20223;-93
2023/03/25 09:15:12;;;;;;;35.50;6.47;;;16.80;59.20;;;;;;5075759;28;20257;-93
2023/03/25 09:17:39;;;;;;;38.70;6.77;;;16.70;59.10;;;;;;5068683;28;20217;-94
2023/03/25 09:20:08;;;;;;;32.20;6.70;;;16.70;59.10;;;;;;5067058;28;20236;-94
2023/03/25 09:22:35;;;;;;;33.57;6.33;;;16.80;59.20;;;;;;5082469;28;20208;-94
2023/03/25 09:25:47;;;;;;;33.50;5.93;;;16.80;59.20;;;;;;5074301;28;20212;-94
2023/03/25 09:28:16;;;;;;;59.70;8.23;;;16.80;59.70;;;;;;4988491;28;20612;-95
2023/03/25 09:30:43;;;;;;;21.83;5.50;;;16.90;59.20;;;;;;5039133;28;20199;-94
2023/03/25 09:33:13;;;;;;;39.10;6.97;;;16.80;59.10;;;;;;5071698;28;20232;-94
2023/03/25 09:35:40;;;;;;;43.67;7.70;;;16.90;59.20;;;;;;5067388;28;20290;-96
2023/03/25 09:38:07;;;;;;;51.20;8.27;;;16.80;59.10;;;;;;5072348;28;20220;-95
2023/03/25 09:40:34;;;;;;;28.03;5.80;;;16.80;59.10;;;;;;5065420;28;20214;-95
2023/03/25 09:43:34;;;;;;;48.97;7.43;;;16.80;59.10;;;;;;5067663;28;20212;-93
2023/03/25 09:46:02;;;;;;;29.83;6.40;;;16.80;59.10;;;;;;5064394;28;20209;-93
2023/03/25 09:48:34;;;;;;;32.53;6.27;;;16.80;59.10;;;;;;5051987;28;20687;-94
2023/03/25 09:51:05;;;;;;;35.43;7.00;;;16.80;59.20;;;;;;5061406;28;20238;-95
2023/03/25 09:53:37;;;;;;;34.07;6.60;;;16.80;59.20;;;;;;5071369;28;20233;-93
2023/03/25 09:56:11;;;;;;;41.60;7.27;;;16.80;59.20;;;;;;5069530;28;20305;-93
2023/03/25 09:58:43;;;;;;;31.60;7.00;;;16.80;59.20;;;;;;5062418;28;20200;-93
2023/03/25 10:01:30;;;;;;;40.27;6.90;;;16.80;59.10;;;;;;5066608;28;20211;-94
2023/03/25 10:04:27;;;;;;;34.87;6.10;;;16.80;59.20;;;;;;5073075;28;20277;-94
2023/03/25 10:07:03;;;;;;;37.47;7.10;;;16.80;59.20;;;;;;5060440;28;20302;-92
2023/03/25 10:09:42;;;;;;;59.47;8.57;;;16.90;59.20;;;;;;5073942;28;20200;-94
2023/03/25 10:12:26;;;;;;;29.73;6.63;;;16.90;59.20;;;;;;5076909;28;20226;-93
2023/03/25 10:15:02;;;;;;;30.70;6.43;;;16.90;59.20;;;;;;5078103;28;20295;-93
2023/03/25 10:17:38;;;;;;;42.17;7.10;;;16.80;59.20;;;;;;5056474;28;20212;-93
2023/03/25 10:20:12;;;;;;;31.27;6.17;;;16.80;59.20;;;;;;5054554;28;20646;-93
2023/03/25 10:22:56;;;;;;;48.90;7.97;;;16.80;59.20;;;;;;5068212;28;20292;-94
2023/03/25 10:25:27;;;;;;;44.50;7.30;;;16.90;59.20;;;;;;5066414;28;20606;-95
2023/03/25 10:27:57;;;;;;;45.43;7.30;;;17.00;59.30;;;;;;5071158;28;20205;-93
2023/03/25 10:30:30;;;;;;;36.63;6.60;;;16.80;59.20;;;;;;5071369;28;20233;-93
2023/03/25 10:32:58;;;;;;;40.40;7.10;;;16.90;59.20;;;;;;5068179;28;20228;-93
2023/03/25 10:35:29;;;;;;;34.70;6.63;;;16.90;59.20;;;;;;5078960;28;20276;-93
2023/03/25 10:38:00;;;;;;;24.83;5.77;;;16.90;59.20;;;;;;5070619;28;20206;-93
2023/03/25 10:40:33;;;;;;;35.90;6.57;;;16.90;59.20;;;;;;5072994;28;20261;-93
2023/03/25 10:43:13;;;;;;;35.13;6.57;;;16.90;59.30;;;;;;5068811;28;20215;-92
2023/03/25 10:45:47;;;;;;;29.00;5.87;;;16.90;59.30;;;;;;5071010;28;20233;-93
2023/03/25 10:48:20;;;;;;;31.57;6.30;;;16.90;59.20;;;;;;5070444;28;20307;-93
2023/03/25 10:50:49;;;;;;;37.67;7.13;;;16.90;59.30;;;;;;5070569;28;20203;-93
2023/03/25 10:53:23;;;;;;;35.40;6.33;;;16.90;59.30;;;;;;5077246;28;20240;-93
2023/03/25 10:55:54;;;;;;;29.47;6.07;;;16.90;59.80;;;;;;5088591;28;20221;-93
2023/03/25 10:58:23;;;;;;;34.53;6.53;;;16.90;59.30;;;;;;5087782;28;20634;-93
2023/03/25 11:00:52;;;;;;;30.10;6.07;;;16.90;59.30;;;;;;5090543;28;20685;-93
2023/03/25 11:03:24;;;;;;;43.70;6.83;;;16.90;59.30;;;;;;5067663;28;20685;-93
2023/03/25 11:05:52;;;;;;;28.70;6.40;;;16.90;59.30;;;;;;5067090;28;20311;-93
2023/03/25 11:08:23;;;;;;;31.80;6.17;;;17.00;59.30;;;;;;5068170;28;20224;-93
2023/03/25 11:10:55;;;;;;;29.37;6.30;;;17.00;59.30;;;;;;5068848;28;20296;-93
2023/03/25 11:13:24;;;;;;;43.30;6.97;;;17.00;59.30;;;;;;5056047;28;20229;-92
2023/03/25 11:15:54;;;;;;;51.33;8.03;;;17.00;59.40;;;;;;5063265;28;20574;-93
2023/03/25 11:18:26;;;;;;;34.23;7.00;;;17.00;59.40;;;;;;5066377;28;20257;-93
2023/03/25 11:20:57;;;;;;;29.13;6.20;;;17.00;59.40;;;;;;5070232;28;20202;-93
2023/03/25 11:23:28;;;;;;;57.63;8.53;;;17.00;59.40;;;;;;5068040;28;20199;-96
2023/03/25 11:26:02;;;;;;;18.47;4.73;;;17.00;59.30;;;;;;5079312;28;20266;-94
2023/03/25 11:28:38;;;;;;;20.80;5.23;;;17.00;59.40;;;;;;5087584;28;20203;-96
2023/03/25 11:31:15;;;;;;;39.77;7.03;;;17.00;59.40;;;;;;5083614;28;20962;-93
2023/03/25 11:33:44;;;;;;;37.80;6.80;;;17.00;59.40;;;;;;5067511;28;20244;-91
2023/03/25 11:36:20;;;;;;;44.07;7.20;;;17.10;59.50;;;;;;5079556;28;20227;-92
2023/03/25 11:38:52;;;;;;;36.67;6.93;;;17.00;59.40;;;;;;5084855;28;20301;-94
2023/03/25 11:41:19;;;;;;;45.50;7.87;;;17.00;59.40;;;;;;5068614;28;20205;-92
2023/03/25 11:43:48;;;;;;;21.97;5.60;;;17.10;59.40;;;;;;5072293;28;20719;-95
2023/03/25 11:46:20;;;;;;;34.10;6.67;;;17.10;59.50;;;;;;5073271;28;20200;-95
2023/03/25 11:49:02;;;;;;;72.27;9.37;;;17.10;59.50;;;;;;5069391;28;20201;-95
2023/03/25 11:51:33;;;;;;;31.27;6.00;;;17.10;59.50;;;;;;5090239;28;20200;-93
2023/03/25 11:54:03;;;;;;;38.57;6.70;;;17.10;59.50;;;;;;5090613;28;20234;-92
2023/03/25 11:56:43;;;;;;;44.17;7.03;;;17.10;59.50;;;;;;5078317;28;20753;-95
2023/03/25 11:59:30;;;;;;;29.50;6.67;;;17.10;59.50;;;;;;5082953;28;20209;-95
2023/03/25 12:02:19;;;;;;;27.53;5.70;;;17.10;59.50;;;;;;5075708;28;20201;-96
2023/03/25 12:05:14;;;;;;;27.90;5.70;;;17.10;59.50;;;;;;5064209;28;20211;-94
2023/03/25 12:08:14;;;;;;;16.27;5.07;;;17.10;59.50;;;;;;5074059;28;20199;-95
2023/03/25 12:10:53;;;;;;;23.53;5.67;;;17.20;59.60;;;;;;5077753;28;20213;-96
2023/03/25 12:13:32;;;;;;;28.37;5.57;;;17.20;59.50;;;;;;5083851;28;20741;-96
2023/03/25 12:16:21;;;;;;;16.83;4.97;;;17.20;59.60;;;;;;5083941;28;20217;-95
2023/03/25 12:19:54;;;;;;;15.27;4.57;;;17.20;59.60;;;;;;5096169;28;20227;-96
2023/03/25 12:22:41;;;;;;;43.57;7.83;;;17.20;59.60;;;;;;5073666;28;20254;-95
2023/03/25 12:25:34;;;;;;;31.23;6.27;;;17.20;59.50;;;;;;5065011;28;20270;-94
2023/03/25 12:28:24;;;;;;;27.27;5.97;;;17.20;59.50;;;;;;5049787;28;20611;-95
2023/03/25 12:31:01;;;;;;;37.03;5.93;;;17.20;59.60;;;;;;5049363;28;20562;-96
2023/03/25 12:33:46;;;;;;;34.40;6.60;;;17.20;59.50;;;;;;5066971;28;20260;-94
2023/03/25 12:36:26;;;;;;;35.63;6.47;;;17.20;59.60;;;;;;5069427;28;20327;-95
2023/03/25 12:39:05;;;;;;;39.63;6.60;;;17.20;59.60;;;;;;5069857;28;20204;-95
2023/03/25 12:41:37;;;;;;;42.70;6.83;;;17.20;59.60;;;;;;5068415;28;20250;-95
2023/03/25 12:44:10;;;;;;;25.63;5.50;;;17.20;59.60;;;;;;5069811;28;20201;-95
2023/03/25 12:47:01;;;;;;;36.03;6.43;;;17.20;59.60;;;;;;5069309;28;20668;-95
2023/03/25 12:49:39;;;;;;;29.47;5.87;;;17.30;59.70;;;;;;5066054;28;20740;-96
2023/03/25 12:52:15;;;;;;;35.77;6.30;;;17.30;59.70;;;;;;5068842;28;20209;-95
2023/03/25 12:54:56;;;;;;;37.20;6.33;;;17.30;59.70;;;;;;5070779;28;20235;-95
2023/03/25 12:57:42;;;;;;;23.00;5.57;;;17.30;59.70;;;;;;5069868;28;20293;-95
2023/03/25 13:00:26;;;;;;;30.47;6.27;;;17.30;59.70;;;;;;5058884;28;20303;-95
2023/03/25 13:03:23;;;;;;;36.70;6.60;;;17.40;59.80;;;;;;5052093;28;20309;-95